D. Carlos I — CTHJ — position and weather

sailwx.info

Track history (hours):
 
Tides and Currents Weather Stations Pressure Air Temp Water Temp Dewpoint Dewpoint Depression Visibility Wind Speed Wind Dir Waves Ship Positions

Oceanographic research ship D. Carlos I (Portugal)

Detailed information on ship capabilities available from University of Delaware's Ocean Information Center.

Last reported at 2017-Oct-05 21:52 UTC. Time now 2017-Oct-17 15:11 UTC.
Position N 27°48' W 013°48'.
Warning: this ship's position is 11 days out of date.

Length 70 m; draft 6 m.

Type: Other ship. MMSI: 263144000.

Date/timePositionNaut miles runAvg speedWind from/ knotsBaromVisibWave heightAir tempDewpointWater temp
2017-Oct-05 21:52N 27°48' W 013°48'3 7.3
2017-Oct-05 21:24N 27°50' W 013°45'3 7.2
2017-Oct-05 21:00N 27°52' W 013°43'4 7.2
2017-Oct-05 20:30N 27°54' W 013°40'4 7.1
2017-Oct-05 20:00N 27°57' W 013°37'5 7.3
2017-Oct-05 19:21N 27°60' W 013°33'3 7.2
2017-Oct-05 19:00N 28°01' W 013°31'4 7.2
2017-Oct-05 18:29N 28°04' W 013°28'5 7.2
2017-Oct-05 17:50N 28°08' W 013°24'2 7.1
2017-Oct-05 17:30N 28°09' W 013°22'4 7.1
2017-Oct-05 17:00N 28°12' W 013°19'11 7.4
2017-Oct-05 15:30N 28°19' W 013°10'4 7.5
2017-Oct-05 15:01N 28°22' W 013°07'4 7.5
2017-Oct-05 14:30N 28°24' W 013°04'4 7.4
2017-Oct-05 14:00N 28°27' W 013°01'3 6.9
2017-Oct-05 13:31N 28°29' W 012°58'3 6.6
2017-Oct-05 13:01N 28°31' W 012°55'3 6.5
2017-Oct-05 12:30N 28°33' W 012°52'3 6.4
2017-Oct-05 12:01N 28°36' W 012°50'3 5.5
2017-Oct-05 11:28N 28°38' W 012°48'11 5.6
2017-Oct-05 09:35N 28°48' W 012°43'1 5.9
2017-Oct-05 09:24N 28°49' W 012°43'74 6.6
2017-Oct-04 22:07N 30°00' W 012°19'1 7.3
2017-Oct-04 21:56N 30°02' W 012°19'6 7.4
2017-Oct-04 21:04N 30°08' W 012°17'1 7.5
2017-Oct-04 20:57N 30°09' W 012°16'3 7.6
2017-Oct-04 20:30N 30°12' W 012°15'125 6.3
2017-Oct-04 00:51N 32°11' W 011°35'66 6.4
2017-Oct-03 14:32N 33°15' W 011°14'264 6.4
2017-Oct-01 21:18N 37°29' W 009°46'2 6.5
2017-Oct-01 21:00N 37°31' W 009°46'15 6.5
2017-Oct-01 18:46N 37°45' W 009°41'2 6.5
2017-Oct-01 18:24N 37°47' W 009°40'3 6.7
2017-Oct-01 18:00N 37°50' W 009°40'3 6.9
2017-Oct-01 17:30N 37°53' W 009°38'3 7.0
2017-Oct-01 17:00N 37°56' W 009°36'3 6.9
2017-Oct-01 16:30N 37°60' W 009°35'3 6.8
2017-Oct-01 16:00N 38°03' W 009°34'3 6.8
2017-Oct-01 15:31N 38°06' W 009°33'3 6.7
2017-Oct-01 15:01N 38°10' W 009°32'3 6.5
2017-Oct-01 14:30N 38°13' W 009°31'3 6.7
2017-Oct-01 14:00N 38°16' W 009°30'3 6.6
2017-Oct-01 13:30N 38°19' W 009°29'3 6.5
2017-Oct-01 13:00N 38°22' W 009°28'3 6.3
2017-Oct-01 12:30N 38°26' W 009°27'3 6.1
2017-Oct-01 12:00N 38°28' W 009°26'3 6.1
2017-Oct-01 11:30N 38°31' W 009°25'4 7.5
2017-Oct-01 11:00N 38°35' W 009°23'4 7.3
2017-Oct-01 10:30N 38°38' W 009°21'3 6.8
2017-Oct-01 10:00N 38°41' W 009°18'3 5.7
2017-Oct-01 09:30N 38°41' W 009°14'3 6.3
2017-Oct-01 09:00N 38°42' W 009°10'2 4.1
2017-Oct-01 08:30N 38°41' W 009°08'1 2.0
2017-Oct-01 07:55N 38°40' W 009°09'  
Track history (hours):
 
Tides and Currents Weather Stations Pressure Air Temp Water Temp Dewpoint Dewpoint Depression Visibility Wind Speed Wind Dir Waves Ship Positions

Oceanographic research ship D. Carlos I (Portugal)

Detailed information on ship capabilities available from University of Delaware's Ocean Information Center.

Last reported at 2017-Oct-05 21:52 UTC. Time now 2017-Oct-17 15:11 UTC.
Position N 27°48' W 013°48'.
Warning: this ship's position is 11 days out of date.

Length 70 m; draft 6 m.

Type: Other ship. MMSI: 263144000.

Date/timePositionNaut miles runAvg speedWind from/ knotsBaromVisibWave heightAir tempDewpointWater temp
2017-Oct-05 21:52N 27°48' W 013°48'3 7.3
2017-Oct-05 21:24N 27°50' W 013°45'3 7.2
2017-Oct-05 21:00N 27°52' W 013°43'4 7.2
2017-Oct-05 20:30N 27°54' W 013°40'4 7.1
2017-Oct-05 20:00N 27°57' W 013°37'5 7.3
2017-Oct-05 19:21N 27°60' W 013°33'3 7.2
2017-Oct-05 19:00N 28°01' W 013°31'4 7.2
2017-Oct-05 18:29N 28°04' W 013°28'5 7.2
2017-Oct-05 17:50N 28°08' W 013°24'2 7.1
2017-Oct-05 17:30N 28°09' W 013°22'4 7.1
2017-Oct-05 17:00N 28°12' W 013°19'11 7.4
2017-Oct-05 15:30N 28°19' W 013°10'4 7.5
2017-Oct-05 15:01N 28°22' W 013°07'4 7.5
2017-Oct-05 14:30N 28°24' W 013°04'4 7.4
2017-Oct-05 14:00N 28°27' W 013°01'3 6.9
2017-Oct-05 13:31N 28°29' W 012°58'3 6.6
2017-Oct-05 13:01N 28°31' W 012°55'3 6.5
2017-Oct-05 12:30N 28°33' W 012°52'3 6.4
2017-Oct-05 12:01N 28°36' W 012°50'3 5.5
2017-Oct-05 11:28N 28°38' W 012°48'11 5.6
2017-Oct-05 09:35N 28°48' W 012°43'1 5.9
2017-Oct-05 09:24N 28°49' W 012°43'74 6.6
2017-Oct-04 22:07N 30°00' W 012°19'1 7.3
2017-Oct-04 21:56N 30°02' W 012°19'6 7.4
2017-Oct-04 21:04N 30°08' W 012°17'1 7.5
2017-Oct-04 20:57N 30°09' W 012°16'3 7.6
2017-Oct-04 20:30N 30°12' W 012°15'125 6.3
2017-Oct-04 00:51N 32°11' W 011°35'66 6.4
2017-Oct-03 14:32N 33°15' W 011°14'264 6.4
2017-Oct-01 21:18N 37°29' W 009°46'2 6.5
2017-Oct-01 21:00N 37°31' W 009°46'15 6.5
2017-Oct-01 18:46N 37°45' W 009°41'2 6.5
2017-Oct-01 18:24N 37°47' W 009°40'3 6.7
2017-Oct-01 18:00N 37°50' W 009°40'3 6.9
2017-Oct-01 17:30N 37°53' W 009°38'3 7.0
2017-Oct-01 17:00N 37°56' W 009°36'3 6.9
2017-Oct-01 16:30N 37°60' W 009°35'3 6.8
2017-Oct-01 16:00N 38°03' W 009°34'3 6.8
2017-Oct-01 15:31N 38°06' W 009°33'3 6.7
2017-Oct-01 15:01N 38°10' W 009°32'3 6.5
2017-Oct-01 14:30N 38°13' W 009°31'3 6.7
2017-Oct-01 14:00N 38°16' W 009°30'3 6.6
2017-Oct-01 13:30N 38°19' W 009°29'3 6.5
2017-Oct-01 13:00N 38°22' W 009°28'3 6.3
2017-Oct-01 12:30N 38°26' W 009°27'3 6.1
2017-Oct-01 12:00N 38°28' W 009°26'3 6.1
2017-Oct-01 11:30N 38°31' W 009°25'4 7.5
2017-Oct-01 11:00N 38°35' W 009°23'4 7.3
2017-Oct-01 10:30N 38°38' W 009°21'3 6.8
2017-Oct-01 10:00N 38°41' W 009°18'3 5.7
2017-Oct-01 09:30N 38°41' W 009°14'3 6.3
2017-Oct-01 09:00N 38°42' W 009°10'2 4.1
2017-Oct-01 08:30N 38°41' W 009°08'1 2.0
2017-Oct-01 07:55N 38°40' W 009°09'  

Dump ship's entire track history